Time;durP1;ratioP1;P1;durP2;ratioP2;P2;SDS_P1;SDS_P2;PMS_P1;PMS_P2;Temp;Humidity;BMP_temperature;BMP_pressure;BME280_temperature;BME280_humidity;BME280_pressure;Samples;Min_cycle;Max_cycle;Signal;HPM_P1;HPM_P2
2022/01/18 00:01:33;;;;;;;0.20;0.15;;;;;;;;;;5053411;28;20395;-67
2022/01/18 00:03:58;;;;;;;0.30;0.30;;;;;;;;;;5052017;28;20017;-66
2022/01/18 00:06:24;;;;;;;0.47;0.20;;;;;;;;;;5053074;28;20116;-67
2022/01/18 00:08:49;;;;;;;0.73;0.25;;;;;;;;;;5053274;28;20024;-66
2022/01/18 00:11:17;;;;;;;0.47;0.47;;;;;;;;;;5052913;28;20017;-67
2022/01/18 00:13:45;;;;;;;0.80;0.30;;;;;;;;;;5053272;28;20025;-66
2022/01/18 00:16:28;;;;;;;0.50;0.30;;;;;;;;;;5052997;28;20024;-66
2022/01/18 00:18:54;;;;;;;2.17;0.25;;;;;;;;;;5053076;28;20017;-66
2022/01/18 00:21:34;;;;;;;2.08;0.32;;;;;;;;;;5052663;28;20029;-65
2022/01/18 00:23:59;;;;;;;0.75;0.38;;;;;;;;;;5052999;28;20067;-65
2022/01/18 00:26:28;;;;;;;0.70;0.70;;;;;;;;;;5052879;28;20389;-66
2022/01/18 00:28:57;;;;;;;0.65;0.25;;;;;;;;;;5052943;28;20017;-66
2022/01/18 00:31:38;;;;;;;0.45;0.30;;;;;;;;;;5052902;28;20027;-66
2022/01/18 00:34:13;;;;;;;0.43;0.30;;;;;;;;;;5053068;28;20055;-66
2022/01/18 00:36:51;;;;;;;0.30;0.10;;;;;;;;;;5052874;28;20036;-66
2022/01/18 00:39:17;;;;;;;1.38;0.40;;;;;;;;;;5052208;28;20139;-65
2022/01/18 00:41:42;;;;;;;0.95;0.20;;;;;;;;;;5052628;28;20039;-66
2022/01/18 00:44:08;;;;;;;0.70;0.40;;;;;;;;;;5052534;28;20059;-66
2022/01/18 00:46:34;;;;;;;0.40;0.30;;;;;;;;;;5052637;28;20042;-66
2022/01/18 00:49:01;;;;;;;0.25;0.20;;;;;;;;;;5052436;28;20013;-66
2022/01/18 00:51:27;;;;;;;0.28;0.28;;;;;;;;;;5052393;28;20021;-65
2022/01/18 00:53:52;;;;;;;0.28;0.13;;;;;;;;;;5051278;28;20155;-65
2022/01/18 00:56:22;;;;;;;0.65;0.30;;;;;;;;;;5052407;28;20017;-65
2022/01/18 00:58:48;;;;;;;0.45;0.30;;;;;;;;;;5052494;28;20024;-66
2022/01/18 01:01:14;;;;;;;0.82;0.40;;;;;;;;;;5052018;28;20017;-66
2022/01/18 01:03:40;;;;;;;0.55;0.28;;;;;;;;;;5052355;28;20033;-66
2022/01/18 01:06:05;;;;;;;1.35;0.20;;;;;;;;;;5052129;28;20045;-66
2022/01/18 01:08:31;;;;;;;0.73;0.30;;;;;;;;;;5052294;28;20021;-66
2022/01/18 01:10:56;;;;;;;0.25;0.25;;;;;;;;;;5050945;28;20021;-67
2022/01/18 01:13:23;;;;;;;0.70;0.20;;;;;;;;;;5051908;28;20083;-66
2022/01/18 01:16:26;;;;;;;0.88;0.22;;;;;;;;;;5052274;28;20028;-66
2022/01/18 01:35:05;;;;;;;0.77;0.60;;;;;;;;;;5052305;28;20043;-66
2022/01/18 01:45:29;;;;;;;1.20;0.22;;;;;;;;;;5051859;28;20512;-66
2022/01/18 01:47:55;;;;;;;0.90;0.40;;;;;;;;;;5052008;28;20499;-65
2022/01/18 01:50:23;;;;;;;0.95;0.20;;;;;;;;;;5054785;28;20452;-65
2022/01/18 01:52:49;;;;;;;0.32;0.17;;;;;;;;;;5054666;28;20017;-67
2022/01/18 01:55:15;;;;;;;0.20;0.20;;;;;;;;;;5055358;28;20025;-66
2022/01/18 01:57:41;;;;;;;0.50;0.30;;;;;;;;;;5055855;28;20131;-65
2022/01/18 02:00:07;;;;;;;1.92;0.50;;;;;;;;;;5055734;28;20047;-65
2022/01/18 02:02:32;;;;;;;0.57;0.40;;;;;;;;;;5055482;28;20314;-65
2022/01/18 02:04:58;;;;;;;0.30;0.20;;;;;;;;;;5055502;28;20037;-66
2022/01/18 02:07:23;;;;;;;0.97;0.20;;;;;;;;;;5055349;28;20717;-66
2022/01/18 02:09:48;;;;;;;0.47;0.23;;;;;;;;;;5055704;28;20265;-67
2022/01/18 02:12:16;;;;;;;2.07;0.37;;;;;;;;;;5055478;28;20250;-67
2022/01/18 02:14:46;;;;;;;0.35;0.25;;;;;;;;;;5055520;28;20748;-65
2022/01/18 02:22:39;;;;;;;0.63;0.22;;;;;;;;;;5055444;28;20320;-66
2022/01/18 02:25:04;;;;;;;0.33;0.27;;;;;;;;;;5055053;28;20472;-66
2022/01/18 02:27:29;;;;;;;0.68;0.40;;;;;;;;;;5055542;28;20017;-65
2022/01/18 02:29:54;;;;;;;0.60;0.27;;;;;;;;;;5053982;28;20132;-65
2022/01/18 02:32:19;;;;;;;0.67;0.20;;;;;;;;;;5055092;28;20025;-66
2022/01/18 02:34:44;;;;;;;0.70;0.40;;;;;;;;;;5055217;28;20032;-65
2022/01/18 02:37:14;;;;;;;0.90;0.30;;;;;;;;;;5054735;28;20056;-65
2022/01/18 02:39:39;;;;;;;0.80;0.20;;;;;;;;;;5055159;28;20058;-67
2022/01/18 02:42:05;;;;;;;2.17;0.57;;;;;;;;;;5054793;28;20021;-66
2022/01/18 02:44:31;;;;;;;0.55;0.20;;;;;;;;;;5054918;28;20021;-65
2022/01/18 02:46:57;;;;;;;0.93;0.30;;;;;;;;;;5054866;28;20506;-65
2022/01/18 02:49:22;;;;;;;0.20;0.20;;;;;;;;;;5054549;28;20040;-66
2022/01/18 02:51:47;;;;;;;0.80;0.30;;;;;;;;;;5054931;28;20483;-66
2022/01/18 02:54:14;;;;;;;0.30;0.20;;;;;;;;;;5054652;28;20021;-66
2022/01/18 02:56:47;;;;;;;0.77;0.20;;;;;;;;;;5054783;28;20246;-65
2022/01/18 02:59:29;;;;;;;0.93;0.10;;;;;;;;;;5054442;28;20464;-66
2022/01/18 03:04:39;;;;;;;0.85;0.22;;;;;;;;;;5054527;28;20060;-66
2022/01/18 03:07:05;;;;;;;0.68;0.43;;;;;;;;;;5052843;28;20031;-66
2022/01/18 03:09:30;;;;;;;0.80;0.20;;;;;;;;;;5054353;28;20017;-66
2022/01/18 03:11:55;;;;;;;0.50;0.20;;;;;;;;;;5054558;28;20154;-65
2022/01/18 03:14:20;;;;;;;0.50;0.30;;;;;;;;;;5054257;28;20013;-66
2022/01/18 03:16:45;;;;;;;0.68;0.20;;;;;;;;;;5054431;28;20242;-65
2022/01/18 03:19:10;;;;;;;0.20;0.20;;;;;;;;;;5052624;28;20104;-66
2022/01/18 03:21:36;;;;;;;0.80;0.30;;;;;;;;;;5054376;28;20021;-66
2022/01/18 03:24:14;;;;;;;1.27;0.30;;;;;;;;;;5054172;28;20774;-66
2022/01/18 03:29:23;;;;;;;0.30;0.30;;;;;;;;;;5053346;28;20356;-65
2022/01/18 03:31:48;;;;;;;0.60;0.30;;;;;;;;;;5054049;28;20013;-67
2022/01/18 03:34:14;;;;;;;0.52;0.20;;;;;;;;;;5053651;28;20288;-66
2022/01/18 03:36:39;;;;;;;0.38;0.20;;;;;;;;;;5054041;28;20124;-66
2022/01/18 03:39:05;;;;;;;0.88;0.30;;;;;;;;;;5053691;28;20027;-66
2022/01/18 03:41:30;;;;;;;1.02;0.20;;;;;;;;;;5053756;28;20120;-65
2022/01/18 03:43:55;;;;;;;0.40;0.20;;;;;;;;;;5053794;28;20100;-66
2022/01/18 03:46:20;;;;;;;0.52;0.30;;;;;;;;;;5053949;28;20632;-67
2022/01/18 03:48:50;;;;;;;0.47;0.22;;;;;;;;;;5053748;28;20510;-66
2022/01/18 03:51:15;;;;;;;0.82;0.35;;;;;;;;;;5053350;28;20052;-66
2022/01/18 03:53:40;;;;;;;0.57;0.35;;;;;;;;;;5053954;28;20455;-65
2022/01/18 03:56:06;;;;;;;0.32;0.10;;;;;;;;;;5052300;28;20116;-66
2022/01/18 03:58:33;;;;;;;0.67;0.30;;;;;;;;;;5053616;28;20033;-67
2022/01/18 04:00:59;;;;;;;0.47;0.20;;;;;;;;;;5052062;28;20341;-66
2022/01/18 04:03:24;;;;;;;0.90;0.13;;;;;;;;;;5053113;28;20104;-67
2022/01/18 04:05:52;;;;;;;0.13;0.13;;;;;;;;;;5053306;28;20052;-65
2022/01/18 04:08:17;;;;;;;1.58;0.40;;;;;;;;;;5053295;28;20516;-67
2022/01/18 04:10:43;;;;;;;0.93;0.20;;;;;;;;;;5052031;28;20108;-65
2022/01/18 04:13:08;;;;;;;0.90;0.20;;;;;;;;;;5052685;28;20025;-65
2022/01/18 04:15:34;;;;;;;1.83;0.50;;;;;;;;;;5053213;28;20024;-66
2022/01/18 04:18:26;;;;;;;0.60;0.20;;;;;;;;;;5053175;28;20384;-66
2022/01/18 04:28:50;;;;;;;0.40;0.30;;;;;;;;;;5053371;28;20025;-65
2022/01/18 04:31:16;;;;;;;0.80;0.30;;;;;;;;;;5052600;28;20048;-65
2022/01/18 04:33:41;;;;;;;0.30;0.23;;;;;;;;;;5052992;28;20037;-65
2022/01/18 04:36:07;;;;;;;0.47;0.40;;;;;;;;;;5052818;28;20265;-66
2022/01/18 04:38:32;;;;;;;0.40;0.40;;;;;;;;;;5052829;28;20269;-65
2022/01/18 04:41:09;;;;;;;1.85;0.47;;;;;;;;;;5052969;28;20056;-66
2022/01/18 04:43:51;;;;;;;1.30;0.45;;;;;;;;;;5052631;28;20028;-65
2022/01/18 04:49:00;;;;;;;0.75;0.45;;;;;;;;;;5052718;28;20048;-66
2022/01/18 04:51:26;;;;;;;0.47;0.20;;;;;;;;;;5052385;28;20457;-66
2022/01/18 04:53:54;;;;;;;0.30;0.22;;;;;;;;;;5052630;28;20013;-66
2022/01/18 04:56:29;;;;;;;0.57;0.30;;;;;;;;;;5052684;28;20028;-65
2022/01/18 04:58:55;;;;;;;0.20;0.20;;;;;;;;;;5052442;28;20472;-66
2022/01/18 05:01:20;;;;;;;1.20;0.32;;;;;;;;;;5052029;28;20043;-67
2022/01/18 05:03:45;;;;;;;0.63;0.27;;;;;;;;;;5052489;28;20033;-65
2022/01/18 05:06:14;;;;;;;0.70;0.20;;;;;;;;;;5052118;28;20070;-67
2022/01/18 05:08:40;;;;;;;0.52;0.28;;;;;;;;;;5052398;28;20286;-66
2022/01/18 05:11:06;;;;;;;0.30;0.20;;;;;;;;;;5052042;28;20613;-67
2022/01/18 05:23:43;;;;;;;0.22;0.10;;;;;;;;;;5051595;28;20032;-67
2022/01/18 05:26:08;;;;;;;0.50;0.30;;;;;;;;;;5052098;28;20376;-65
2022/01/18 05:28:33;;;;;;;0.60;0.30;;;;;;;;;;5052146;28;20460;-66
2022/01/18 05:30:58;;;;;;;0.40;0.17;;;;;;;;;;5050687;28;20433;-67
2022/01/18 05:33:23;;;;;;;0.98;0.17;;;;;;;;;;5051798;28;20029;-67
2022/01/18 05:35:49;;;;;;;0.10;0.00;;;;;;;;;;5052240;28;20025;-66
2022/01/18 05:38:15;;;;;;;0.60;0.20;;;;;;;;;;5050607;28;20067;-66
2022/01/18 05:40:40;;;;;;;0.47;0.13;;;;;;;;;;5052098;28;20017;-66
2022/01/18 05:43:05;;;;;;;0.40;0.15;;;;;;;;;;5051568;28;20120;-66
2022/01/18 05:45:31;;;;;;;0.38;0.10;;;;;;;;;;5051854;28;20749;-66
2022/01/18 05:47:56;;;;;;;0.60;0.13;;;;;;;;;;5052008;28;20023;-66
2022/01/18 05:50:22;;;;;;;0.20;0.13;;;;;;;;;;5051746;28;20108;-66
2022/01/18 05:52:47;;;;;;;0.30;0.20;;;;;;;;;;5051910;28;20028;-66
2022/01/18 05:55:12;;;;;;;1.15;0.10;;;;;;;;;;5051369;28;20353;-66
2022/01/18 05:57:38;;;;;;;0.43;0.17;;;;;;;;;;5051890;28;20017;-66
2022/01/18 06:00:05;;;;;;;1.95;0.50;;;;;;;;;;5051790;28;20040;-66
2022/01/18 06:07:43;;;;;;;0.60;0.10;;;;;;;;;;5051827;28;20024;-67
2022/01/18 06:10:08;;;;;;;1.88;0.17;;;;;;;;;;5051662;28;20418;-66
2022/01/18 06:12:33;;;;;;;0.17;0.10;;;;;;;;;;5051703;28;20033;-66
2022/01/18 06:14:58;;;;;;;0.37;0.10;;;;;;;;;;5051806;28;20664;-66
2022/01/18 06:17:24;;;;;;;0.33;0.10;;;;;;;;;;5051378;28;20333;-66
2022/01/18 06:19:49;;;;;;;0.47;0.35;;;;;;;;;;5051713;28;20539;-66
2022/01/18 06:22:14;;;;;;;0.65;0.20;;;;;;;;;;5050117;28;20025;-66
2022/01/18 06:24:39;;;;;;;0.35;0.10;;;;;;;;;;5051312;28;20460;-68
2022/01/18 06:27:05;;;;;;;0.87;0.27;;;;;;;;;;5051280;28;20468;-67
2022/01/18 06:29:30;;;;;;;0.40;0.35;;;;;;;;;;5050625;28;20281;-67
2022/01/18 06:31:55;;;;;;;0.28;0.22;;;;;;;;;;5050305;28;20023;-66
2022/01/18 06:34:20;;;;;;;0.25;0.25;;;;;;;;;;5051372;28;20028;-66
2022/01/18 06:36:46;;;;;;;1.40;0.30;;;;;;;;;;5054883;28;20025;-66
2022/01/18 06:39:11;;;;;;;0.47;0.30;;;;;;;;;;5054839;28;20358;-66
2022/01/18 06:41:36;;;;;;;0.85;0.20;;;;;;;;;;5055024;28;20254;-66
2022/01/18 06:44:01;;;;;;;0.47;0.30;;;;;;;;;;5054839;28;20448;-66
2022/01/18 06:46:27;;;;;;;0.40;0.20;;;;;;;;;;5054849;28;20021;-66
2022/01/18 06:48:52;;;;;;;1.17;0.43;;;;;;;;;;5054914;28;20059;-66
2022/01/18 06:51:17;;;;;;;0.63;0.32;;;;;;;;;;5054495;28;20024;-68
2022/01/18 06:53:47;;;;;;;0.30;0.30;;;;;;;;;;5054694;28;20021;-68
2022/01/18 06:56:13;;;;;;;0.20;0.20;;;;;;;;;;5054577;28;20705;-67
2022/01/18 06:58:39;;;;;;;0.32;0.30;;;;;;;;;;5053495;28;20032;-66
2022/01/18 07:01:04;;;;;;;0.70;0.30;;;;;;;;;;5054404;28;20349;-65
2022/01/18 07:03:29;;;;;;;0.38;0.30;;;;;;;;;;5054452;28;20037;-66
2022/01/18 07:05:55;;;;;;;1.03;0.20;;;;;;;;;;5054459;28;20041;-66
2022/01/18 07:08:20;;;;;;;1.05;0.30;;;;;;;;;;5054369;28;20028;-66
2022/01/18 07:10:45;;;;;;;0.82;0.22;;;;;;;;;;5054620;28;20079;-66
2022/01/18 07:13:13;;;;;;;0.50;0.20;;;;;;;;;;5054620;28;20017;-67
2022/01/18 07:15:38;;;;;;;0.70;0.40;;;;;;;;;;5054460;28;20293;-66
2022/01/18 07:18:05;;;;;;;0.47;0.23;;;;;;;;;;5053049;28;20490;-66
2022/01/18 07:20:31;;;;;;;0.82;0.20;;;;;;;;;;5054337;28;20044;-66
2022/01/18 07:22:56;;;;;;;1.40;0.20;;;;;;;;;;5054146;28;20072;-66
2022/01/18 07:25:21;;;;;;;0.30;0.30;;;;;;;;;;5053949;28;20086;-66
2022/01/18 07:27:46;;;;;;;1.13;0.30;;;;;;;;;;5054333;28;20105;-68
2022/01/18 07:30:12;;;;;;;1.33;0.13;;;;;;;;;;5054037;28;20052;-66
2022/01/18 07:32:37;;;;;;;0.63;0.30;;;;;;;;;;5054128;28;20254;-66
2022/01/18 07:35:03;;;;;;;0.55;0.20;;;;;;;;;;5053545;28;20265;-66
2022/01/18 07:37:28;;;;;;;0.90;0.30;;;;;;;;;;5052616;28;20032;-66
2022/01/18 07:39:53;;;;;;;0.45;0.30;;;;;;;;;;5053016;28;20024;-66
2022/01/18 07:42:20;;;;;;;0.28;0.20;;;;;;;;;;5053585;28;20419;-66
2022/01/18 07:44:45;;;;;;;1.80;0.32;;;;;;;;;;5054017;28;20024;-66
2022/01/18 07:47:10;;;;;;;1.55;0.30;;;;;;;;;;5052791;28;20025;-66
2022/01/18 07:49:35;;;;;;;0.90;0.30;;;;;;;;;;5053781;28;20530;-66
2022/01/18 07:52:00;;;;;;;1.20;0.30;;;;;;;;;;5052473;28;20242;-65
2022/01/18 07:54:26;;;;;;;0.30;0.20;;;;;;;;;;5053908;28;20017;-66
2022/01/18 07:56:51;;;;;;;0.30;0.20;;;;;;;;;;5053679;28;20253;-66
2022/01/18 07:59:16;;;;;;;1.33;0.40;;;;;;;;;;5053229;28;20666;-66
2022/01/18 08:01:42;;;;;;;0.75;0.22;;;;;;;;;;5053542;28;20021;-67
2022/01/18 08:04:07;;;;;;;0.57;0.20;;;;;;;;;;5053133;28;20013;-66
2022/01/18 08:06:33;;;;;;;0.80;0.40;;;;;;;;;;5053729;28;20028;-66
2022/01/18 08:08:58;;;;;;;0.73;0.38;;;;;;;;;;5053266;28;20020;-66
2022/01/18 08:11:23;;;;;;;0.20;0.20;;;;;;;;;;5053069;28;20095;-66
2022/01/18 08:13:50;;;;;;;0.57;0.22;;;;;;;;;;5053349;28;20605;-66
2022/01/18 08:18:53;;;;;;;0.50;0.25;;;;;;;;;;5053473;28;20021;-65
2022/01/18 08:21:19;;;;;;;0.75;0.10;;;;;;;;;;5052770;28;20052;-66
2022/01/18 08:23:44;;;;;;;0.30;0.20;;;;;;;;;;5053089;28;20479;-68
2022/01/18 08:26:09;;;;;;;1.70;0.13;;;;;;;;;;5052941;28;20480;-67
2022/01/18 08:28:34;;;;;;;0.43;0.27;;;;;;;;;;5053089;28;20021;-66
2022/01/18 08:30:59;;;;;;;0.23;0.23;;;;;;;;;;5052801;28;20570;-67
2022/01/18 08:33:25;;;;;;;0.30;0.28;;;;;;;;;;5053230;28;20253;-66
2022/01/18 08:35:50;;;;;;;0.50;0.20;;;;;;;;;;5052991;28;20503;-65
2022/01/18 08:38:15;;;;;;;0.45;0.30;;;;;;;;;;5052669;28;20254;-66
2022/01/18 08:40:40;;;;;;;0.30;0.20;;;;;;;;;;5052812;28;20112;-66
2022/01/18 08:43:06;;;;;;;0.50;0.20;;;;;;;;;;5052248;28;20033;-66
2022/01/18 08:45:31;;;;;;;1.05;0.25;;;;;;;;;;5052536;28;20297;-66
2022/01/18 08:47:56;;;;;;;0.52;0.20;;;;;;;;;;5052590;28;20021;-66
2022/01/18 08:50:21;;;;;;;2.70;0.40;;;;;;;;;;5052359;28;20143;-65
2022/01/18 08:52:52;;;;;;;1.35;0.30;;;;;;;;;;5052576;28;20100;-65
2022/01/18 08:55:18;;;;;;;1.13;0.20;;;;;;;;;;5050883;28;20031;-66
2022/01/18 08:57:43;;;;;;;1.23;0.10;;;;;;;;;;5051104;28;20409;-65
2022/01/18 09:00:10;;;;;;;0.80;0.57;;;;;;;;;;5051501;28;20070;-65
2022/01/18 09:02:35;;;;;;;0.47;0.30;;;;;;;;;;5052328;28;20266;-64
2022/01/18 09:05:00;;;;;;;2.15;0.50;;;;;;;;;;5051993;28;20033;-65
2022/01/18 09:07:26;;;;;;;0.83;0.50;;;;;;;;;;5052304;28;20021;-65
2022/01/18 09:09:56;;;;;;;0.22;0.20;;;;;;;;;;5052422;28;20017;-65
2022/01/18 09:12:21;;;;;;;0.50;0.20;;;;;;;;;;5052156;28;20023;-65
2022/01/18 09:14:46;;;;;;;1.40;0.37;;;;;;;;;;5052289;28;20099;-66
2022/01/18 09:17:11;;;;;;;0.63;0.33;;;;;;;;;;5051849;28;20256;-66
2022/01/18 09:19:37;;;;;;;0.45;0.20;;;;;;;;;;5052488;28;20737;-66
2022/01/18 09:22:03;;;;;;;1.63;0.38;;;;;;;;;;5052137;28;20036;-65
2022/01/18 09:24:28;;;;;;;0.40;0.30;;;;;;;;;;5052092;28;20039;-65
2022/01/18 09:26:54;;;;;;;0.70;0.28;;;;;;;;;;5052074;28;20476;-65
2022/01/18 09:29:19;;;;;;;0.40;0.40;;;;;;;;;;5051757;28;20392;-64
2022/01/18 09:31:44;;;;;;;0.90;0.32;;;;;;;;;;5052154;28;20075;-65
2022/01/18 09:34:09;;;;;;;0.53;0.40;;;;;;;;;;5051977;28;20017;-65
2022/01/18 09:36:35;;;;;;;1.13;0.60;;;;;;;;;;5052361;28;20636;-65
2022/01/18 09:39:00;;;;;;;0.32;0.20;;;;;;;;;;5051824;28;20321;-65
2022/01/18 09:41:31;;;;;;;0.85;0.30;;;;;;;;;;5051790;28;20055;-66
2022/01/18 09:43:56;;;;;;;0.40;0.20;;;;;;;;;;5051867;28;20104;-65
2022/01/18 09:46:27;;;;;;;0.80;0.40;;;;;;;;;;5051855;28;20044;-65
2022/01/18 09:48:53;;;;;;;0.95;0.22;;;;;;;;;;5051886;28;20025;-65
2022/01/18 09:51:18;;;;;;;1.45;0.45;;;;;;;;;;5051508;28;20020;-65
2022/01/18 09:53:44;;;;;;;0.30;0.20;;;;;;;;;;5051893;28;20029;-65
2022/01/18 09:56:09;;;;;;;1.23;0.60;;;;;;;;;;5051783;28;20029;-65
2022/01/18 09:58:34;;;;;;;1.17;0.20;;;;;;;;;;5051870;28;20249;-66
2022/01/18 10:00:59;;;;;;;0.37;0.30;;;;;;;;;;5050309;28;20040;-65
2022/01/18 10:03:26;;;;;;;0.20;0.20;;;;;;;;;;5051455;28;20266;-65
2022/01/18 10:05:52;;;;;;;0.77;0.20;;;;;;;;;;5051789;28;20274;-66
2022/01/18 10:08:18;;;;;;;0.73;0.28;;;;;;;;;;5051900;28;20461;-65
2022/01/18 10:10:44;;;;;;;0.70;0.22;;;;;;;;;;5053634;28;20025;-65
2022/01/18 10:13:17;;;;;;;0.75;0.40;;;;;;;;;;5055195;28;20036;-66
2022/01/18 10:16:03;;;;;;;0.50;0.30;;;;;;;;;;5055603;28;20021;-65
2022/01/18 10:18:34;;;;;;;0.40;0.20;;;;;;;;;;5054868;28;20511;-66
2022/01/18 10:20:59;;;;;;;0.88;0.40;;;;;;;;;;5055335;28;20474;-65
2022/01/18 10:23:25;;;;;;;0.40;0.40;;;;;;;;;;5055087;28;20052;-65
2022/01/18 10:25:51;;;;;;;0.50;0.30;;;;;;;;;;5055457;28;20346;-65
2022/01/18 10:28:33;;;;;;;1.48;0.50;;;;;;;;;;5055193;28;20246;-65
2022/01/18 10:31:03;;;;;;;0.57;0.40;;;;;;;;;;5055133;28;20468;-65
2022/01/18 10:33:35;;;;;;;0.32;0.20;;;;;;;;;;5055426;28;20107;-65
2022/01/18 10:36:14;;;;;;;0.43;0.40;;;;;;;;;;5055151;28;20017;-65
2022/01/18 10:38:40;;;;;;;0.47;0.30;;;;;;;;;;5055186;28;20027;-65
2022/01/18 10:41:21;;;;;;;0.98;0.40;;;;;;;;;;5054750;28;20107;-66
2022/01/18 10:44:01;;;;;;;0.77;0.35;;;;;;;;;;5054993;28;20032;-65
2022/01/18 10:46:32;;;;;;;0.80;0.30;;;;;;;;;;5054856;28;20021;-66
2022/01/18 10:48:57;;;;;;;0.40;0.17;;;;;;;;;;5054900;28;20021;-65
2022/01/18 10:51:29;;;;;;;0.40;0.20;;;;;;;;;;5054554;28;20021;-65
2022/01/18 10:54:02;;;;;;;0.40;0.20;;;;;;;;;;5054898;28;20487;-66
2022/01/18 10:56:37;;;;;;;0.30;0.20;;;;;;;;;;5054732;28;20051;-65
2022/01/18 10:59:03;;;;;;;0.88;0.15;;;;;;;;;;5054492;28;20025;-65
2022/01/18 11:01:28;;;;;;;0.77;0.35;;;;;;;;;;5054526;28;20028;-65
2022/01/18 11:04:11;;;;;;;0.47;0.35;;;;;;;;;;5054672;28;20461;-65
2022/01/18 11:06:37;;;;;;;0.85;0.60;;;;;;;;;;5054666;28;20115;-65
2022/01/18 11:09:15;;;;;;;0.80;0.20;;;;;;;;;;5054289;28;20100;-65
2022/01/18 11:11:41;;;;;;;1.27;0.43;;;;;;;;;;5054567;28;20025;-64
2022/01/18 11:14:08;;;;;;;0.35;0.30;;;;;;;;;;5054402;28;20376;-65
2022/01/18 11:16:40;;;;;;;0.75;0.30;;;;;;;;;;5054497;28;20023;-65
2022/01/18 11:19:07;;;;;;;0.30;0.30;;;;;;;;;;5054020;28;20014;-65
2022/01/18 11:21:32;;;;;;;0.80;0.30;;;;;;;;;;5053396;28;20033;-65
2022/01/18 11:23:57;;;;;;;1.27;0.50;;;;;;;;;;5054211;28;20411;-65
2022/01/18 11:26:24;;;;;;;0.57;0.30;;;;;;;;;;5054059;28;20031;-65
2022/01/18 11:28:55;;;;;;;1.02;0.40;;;;;;;;;;5054291;28;20127;-65
2022/01/18 11:31:21;;;;;;;1.63;0.90;;;;;;;;;;5053762;28;20054;-65
2022/01/18 11:33:49;;;;;;;0.30;0.30;;;;;;;;;;5053925;28;20048;-64
2022/01/18 11:36:15;;;;;;;0.88;0.30;;;;;;;;;;5053883;28;20033;-66
2022/01/18 11:38:42;;;;;;;0.45;0.30;;;;;;;;;;5054033;28;20104;-65
2022/01/18 11:41:20;;;;;;;0.20;0.20;;;;;;;;;;5053591;28;20100;-65
2022/01/18 11:43:45;;;;;;;1.10;0.30;;;;;;;;;;5053828;28;20025;-65
2022/01/18 11:46:32;;;;;;;1.23;0.65;;;;;;;;;;5053717;28;20021;-67
2022/01/18 11:49:07;;;;;;;0.45;0.35;;;;;;;;;;5053746;28;20055;-65
2022/01/18 11:51:40;;;;;;;1.25;0.38;;;;;;;;;;5054031;28;20025;-66
2022/01/18 11:54:20;;;;;;;2.03;0.30;;;;;;;;;;5053322;28;20047;-65
2022/01/18 11:56:46;;;;;;;0.30;0.20;;;;;;;;;;5053746;28;20021;-65
2022/01/18 11:59:14;;;;;;;1.15;0.40;;;;;;;;;;5053169;28;20024;-66
2022/01/18 12:01:50;;;;;;;1.52;0.40;;;;;;;;;;5053589;28;20063;-66
2022/01/18 12:04:33;;;;;;;0.50;0.38;;;;;;;;;;5053029;28;20377;-65
2022/01/18 12:06:59;;;;;;;0.40;0.30;;;;;;;;;;5053271;28;20047;-65
2022/01/18 12:09:36;;;;;;;0.45;0.35;;;;;;;;;;5053074;28;20013;-65
2022/01/18 12:12:04;;;;;;;1.35;0.50;;;;;;;;;;5053314;28;20027;-65
2022/01/18 12:14:33;;;;;;;1.02;0.35;;;;;;;;;;5053282;28;20464;-65
2022/01/18 12:17:12;;;;;;;0.40;0.20;;;;;;;;;;5053193;28;20519;-65
2022/01/18 12:19:42;;;;;;;0.75;0.20;;;;;;;;;;5053273;28;20021;-65
2022/01/18 12:22:07;;;;;;;0.75;0.22;;;;;;;;;;5053027;28;20021;-65
2022/01/18 12:24:32;;;;;;;0.43;0.33;;;;;;;;;;5053444;28;20416;-65
2022/01/18 12:27:03;;;;;;;0.32;0.20;;;;;;;;;;5052965;28;20282;-65
2022/01/18 12:34:38;;;;;;;1.13;0.52;;;;;;;;;;5052999;28;20261;-66
2022/01/18 12:37:24;;;;;;;0.60;0.30;;;;;;;;;;5052575;28;20036;-65
2022/01/18 12:39:49;;;;;;;0.40;0.30;;;;;;;;;;5052640;28;20049;-65
2022/01/18 12:44:20;;;;;;;0.28;0.25;;;;;;;;;;5053824;28;20052;-65
2022/01/18 12:45:08;;;;;;;1.02;0.22;;;;;;;;;;5050063;28;20017;-65
2022/01/18 12:47:35;;;;;;;;;;;;;;;;;;5045978;28;20028;-65
2022/01/18 12:50:01;;;;;;;0.32;0.20;;;;;;;;;;5050793;28;19905;-65
2022/01/18 12:52:26;;;;;;;0.75;0.20;;;;;;;;;;5050933;28;20075;-65
2022/01/18 12:54:51;;;;;;;1.30;0.50;;;;;;;;;;5052168;28;20021;-65
2022/01/18 12:57:18;;;;;;;0.20;0.20;;;;;;;;;;5051698;28;20112;-65
2022/01/18 13:00:06;;;;;;;1.30;0.47;;;;;;;;;;5051859;28;20731;-66
2022/01/18 13:02:31;;;;;;;0.80;0.30;;;;;;;;;;5051074;28;20028;-65
2022/01/18 13:04:57;;;;;;;0.30;0.28;;;;;;;;;;5051122;28;20049;-66
2022/01/18 13:07:23;;;;;;;0.47;0.40;;;;;;;;;;5050071;28;20025;-66
2022/01/18 13:09:58;;;;;;;0.40;0.20;;;;;;;;;;5051076;28;20059;-65
2022/01/18 13:12:30;;;;;;;0.65;0.35;;;;;;;;;;5051150;28;20195;-66
2022/01/18 13:14:56;;;;;;;0.65;0.50;;;;;;;;;;5049493;28;20025;-65
2022/01/18 13:23:01;;;;;;;0.10;0.10;;;;;;;;;;5050848;28;20032;-65
2022/01/18 13:25:26;;;;;;;0.30;0.28;;;;;;;;;;5050632;28;20100;-65
2022/01/18 13:28:00;;;;;;;1.17;0.40;;;;;;;;;;5052258;28;20445;-65
2022/01/18 13:30:28;;;;;;;;;;;;;;;;;;5051820;28;20342;-65
2022/01/18 13:32:56;;;;;;;1.63;0.30;;;;;;;;;;5051693;28;19952;-65
2022/01/18 13:35:24;;;;;;;0.77;0.35;;;;;;;;;;5050585;28;20024;-65
2022/01/18 13:37:50;;;;;;;0.85;0.20;;;;;;;;;;5051905;28;20461;-65
2022/01/18 13:40:17;;;;;;;1.20;0.30;;;;;;;;;;5051176;28;20024;-64
2022/01/18 13:42:44;;;;;;;1.45;0.22;;;;;;;;;;5051551;28;20053;-66
2022/01/18 13:45:25;;;;;;;0.40;0.17;;;;;;;;;;5052335;28;20028;-65
2022/01/18 13:47:53;;;;;;;0.20;0.20;;;;;;;;;;5057607;28;20025;-65
2022/01/18 13:50:37;;;;;;;0.82;0.30;;;;;;;;;;5062600;28;20494;-65
2022/01/18 13:53:06;;;;;;;0.60;0.30;;;;;;;;;;5068047;28;20486;-66
2022/01/18 13:55:32;;;;;;;0.80;0.40;;;;;;;;;;5057891;28;20081;-66
2022/01/18 13:57:58;;;;;;;0.73;0.40;;;;;;;;;;5054240;28;20029;-66
2022/01/18 14:00:27;;;;;;;0.77;0.32;;;;;;;;;;5054792;28;20033;-65
2022/01/18 14:02:53;;;;;;;0.40;0.32;;;;;;;;;;5055190;28;20370;-65
2022/01/18 14:05:21;;;;;;;2.50;0.80;;;;;;;;;;5055145;28;20055;-65
2022/01/18 14:07:46;;;;;;;1.27;0.50;;;;;;;;;;5055654;28;20017;-64
2022/01/18 14:10:11;;;;;;;0.30;0.30;;;;;;;;;;5055570;28;20431;-65
2022/01/18 14:12:37;;;;;;;0.87;0.30;;;;;;;;;;5055696;28;20021;-65
2022/01/18 14:15:02;;;;;;;0.50;0.40;;;;;;;;;;5055294;28;20257;-66
2022/01/18 14:17:27;;;;;;;0.65;0.30;;;;;;;;;;5055064;28;20017;-65
2022/01/18 14:20:08;;;;;;;1.10;0.30;;;;;;;;;;5055313;28;20535;-64
2022/01/18 14:22:34;;;;;;;0.38;0.20;;;;;;;;;;5055174;28;20048;-66
2022/01/18 14:25:04;;;;;;;1.13;0.88;;;;;;;;;;5058146;28;20091;-64
2022/01/18 14:27:32;;;;;;;0.57;0.35;;;;;;;;;;5054080;28;20020;-64
2022/01/18 14:29:58;;;;;;;0.95;0.40;;;;;;;;;;5069847;28;20056;-65
2022/01/18 14:32:29;;;;;;;0.70;0.40;;;;;;;;;;5066740;28;20033;-65
2022/01/18 14:34:57;;;;;;;0.32;0.17;;;;;;;;;;5058046;28;20027;-65
2022/01/18 14:37:33;;;;;;;0.30;0.30;;;;;;;;;;5052172;28;20264;-64
2022/01/18 14:40:03;;;;;;;1.65;0.52;;;;;;;;;;5052421;28;20076;-65
2022/01/18 14:42:39;;;;;;;0.50;0.20;;;;;;;;;;5054841;28;20672;-65
2022/01/18 14:45:58;;;;;;;0.30;0.30;;;;;;;;;;5053735;28;20013;-64
2022/01/18 14:47:53;;;;;;;0.70;0.30;;;;;;;;;;5051931;28;20110;-65
2022/01/18 14:50:19;;;;;;;0.67;0.40;;;;;;;;;;5054390;28;20060;-65
2022/01/18 14:52:46;;;;;;;0.77;0.30;;;;;;;;;;5063177;28;20104;-65
2022/01/18 14:55:11;;;;;;;0.75;0.52;;;;;;;;;;5051281;28;20021;-65
2022/01/18 14:57:37;;;;;;;1.55;0.50;;;;;;;;;;5056626;28;20025;-67
2022/01/18 15:00:04;;;;;;;1.00;0.38;;;;;;;;;;5058514;28;20032;-65
2022/01/18 15:02:32;;;;;;;1.23;0.32;;;;;;;;;;5053762;28;20108;-65
2022/01/18 15:04:57;;;;;;;0.25;0.20;;;;;;;;;;5052940;28;20187;-65
2022/01/18 15:07:23;;;;;;;0.73;0.30;;;;;;;;;;5053438;28;20035;-65
2022/01/18 15:09:48;;;;;;;0.32;0.30;;;;;;;;;;5052940;28;20025;-65
2022/01/18 15:12:13;;;;;;;0.73;0.20;;;;;;;;;;5052223;28;20025;-65
2022/01/18 15:14:38;;;;;;;0.20;0.20;;;;;;;;;;5053807;28;20476;-64
2022/01/18 15:17:04;;;;;;;0.75;0.40;;;;;;;;;;5052859;28;20293;-64
2022/01/18 15:19:29;;;;;;;0.30;0.30;;;;;;;;;;5054121;28;20021;-65
2022/01/18 15:21:54;;;;;;;0.32;0.28;;;;;;;;;;5061945;28;20677;-65
2022/01/18 15:24:19;;;;;;;1.08;0.20;;;;;;;;;;5053655;28;20035;-66
2022/01/18 15:26:44;;;;;;;0.38;0.28;;;;;;;;;;5053661;28;20480;-66
2022/01/18 15:29:10;;;;;;;0.73;0.37;;;;;;;;;;5052034;28;20109;-65
2022/01/18 15:31:35;;;;;;;0.30;0.13;;;;;;;;;;5053108;28;20258;-65
2022/01/18 15:34:00;;;;;;;0.30;0.30;;;;;;;;;;5053277;28;20029;-65
2022/01/18 15:36:25;;;;;;;1.50;0.43;;;;;;;;;;5053973;28;20492;-65
2022/01/18 15:38:51;;;;;;;0.60;0.25;;;;;;;;;;5054044;28;20048;-65
2022/01/18 15:41:16;;;;;;;0.70;0.30;;;;;;;;;;5053601;28;20032;-65
2022/01/18 15:43:41;;;;;;;0.67;0.20;;;;;;;;;;5052617;28;20021;-65
2022/01/18 15:46:06;;;;;;;0.52;0.50;;;;;;;;;;5053828;28;20025;-65
2022/01/18 15:48:32;;;;;;;0.82;0.30;;;;;;;;;;5053851;28;20419;-65
2022/01/18 15:50:57;;;;;;;0.30;0.30;;;;;;;;;;5052456;28;20021;-66
2022/01/18 15:53:22;;;;;;;0.25;0.10;;;;;;;;;;5053411;28;20025;-65
2022/01/18 15:55:48;;;;;;;0.97;0.30;;;;;;;;;;5053780;28;20047;-65
2022/01/18 15:58:14;;;;;;;0.83;0.20;;;;;;;;;;5053530;28;20029;-66
2022/01/18 16:00:42;;;;;;;0.40;0.20;;;;;;;;;;5053669;28;20254;-65